DAAGGBYD

Guest
Details From DAAG - Alger Houari Boumediene
To GBYD - Banjul Intl
Flight Number -
Tags Generated
Created
Modified
Stats Distance 1,762 nm / 3,262 km
Max Altitude 0 ft / 0 m
Waypoints 3
Social Downloads 2
Likes 0
Share VATSIM

Download

Looking for another format? Having issues loading an existing format? Contact us
Advertisement - Login to hide

Notes

Generated

Route

DAAG ND GBYD

ID Type Via Altitude Latitude Longitude Leg Dist Tot Dist Heading (true) Name
O DAAG APT - 0 ft / 0 m 36.69213˚ 3.17083˚ - 0 nm - -
ND NDB - 0 ft / 0 m 13.34538˚ -16.65744˚ 1761 nm 1761 nm 222° / 214° BANJUL NDB
O GBYD APT - 0 ft / 0 m 13.34855˚ -16.66481˚ 0 nm 1761 nm 294° / 294° -

Altitude Profile

Advertisement - Login to hide

Weather


0- 5 10 15 20 25 30 35+ Temperature / ° C

Clouds and Precipitation
Forecast for 2018-05-26 12:00 UTC. Updated 5 hours ago

Ground ~20,000 ft ~40,000 ft Winds

DAAG

Details ICAO DAAG (ALG)
Name Alger Houari Boumediene
Region Algeria
Timezone Africa/Algiers (UTC+1.0)
Stats Elevation 82 ft / 25 m (AMSL)
Location 36.697521° 3.213079°
Runways 2
Magnetic Variation 1.103° E

METAR

DAAG 261600Z 34008KT 300V360 8000 FEW015 BKN200 22/18 Q1013

Decode

TAF

TAF DAAG 261100Z 2612/2712 02010KT 8000 FEW026 PROB30 TEMPO 2614/2618 VRB02KT 5000 HZ FEW026TCU BECMG 2618/2621 VRB02KT BECMG 2707/2710 28010KT PROB40 TEMPO 2709/2712 5000 -RA FEW023TCU

Decode

Departure Runways

ID Width Length Bearing (true) Bearing (mag) Surface Threshold Offset Overrun Length
05 197 ft / 60 m 11,459 ft / 3,493 m 52.87° 51.77° Asphalt 0 ft / 0 m 0 ft / 0 m
09 148 ft / 45 m 11,442 ft / 3,487 m 91.75° 90.65° Asphalt 0 ft / 0 m 1,017 ft / 310 m
23 197 ft / 60 m 11,459 ft / 3,493 m 232.89° 231.79° Asphalt 0 ft / 0 m 0 ft / 0 m
27 148 ft / 45 m 11,442 ft / 3,487 m 271.78° 270.68° Asphalt 0 ft / 0 m 0 ft / 0 m

GBYD

Details ICAO GBYD (BJL)
Name Banjul Intl
Region The Gambia
Timezone Africa/Banjul (UTC+0.0)
Stats Elevation 95 ft / 29 m (AMSL)
Location 13.337960° -16.652206°
Runways 1
Magnetic Variation 7.261° W

METAR

GBYD 261600Z 25012KT CAVOK 27/18 Q1011

Decode

TAF

TAF GBYD 261130Z 2612/2718 28007KT 9999 SCT010

Decode

Destination Runways

ID Width Length Bearing (true) Bearing (mag) Surface Threshold Offset Overrun Length
14 148 ft / 45 m 11,825 ft / 3,604 m 130.82° 138.08° Asphalt 500 ft / 152 m 197 ft / 60 m
32 148 ft / 45 m 11,825 ft / 3,604 m 310.83° 318.09° Asphalt 500 ft / 152 m 393 ft / 120 m